Aérodrome :
LOGIN :

S'inscrire | Disclaimer

   EN    FR    IT 

 










Légende :    VFR   VFR Marginal   IFR   IFR Intensif   IFR Très Intensif
Visi : 
Plafond : 
>= 8 km
>= 3000ft
5 à 8 km
1000 à 3000 ft
1500m à 5 km
500 à 1000 ft
800 à 1500m
200 à 500 ft
< 800m
< 200 ft
Symboles :   Orages  Brouillard  Fortes neiges  Fortes précipitations  Vent > 20 kt
SIGMETs :   Divers  Orages  Givrage  Turbulence  Onde Orograph.  Cendres Volcan.






- Altitude de l'aérodrome : 1860 ft
- Code IATA : GRX


LEGR - Granada

DERNIER METAR :
  • 221900Z 29005KT 250V350 9999 RA FEW030 BKN040 BKN050 10/08 Q1011

METARs EXPIRÉS :
  • 221844Z 29005KT 250V340 9999 RA BKN050 BKN070 10/08 Q1011
  • 221830Z 33006KT 290V350 9999 BKN050 BKN070 11/07 Q1010
  • 221800Z 35003KT 270V020 9999 -RA BKN040 BKN060 12/09 Q1010 RERA
  • 221749Z VRB02KT 9999 RA BKN040 BKN060 12/08 Q1010
  • 221730Z 16006KT 120V200 9999 -RA BKN040 BKN060 12/08 Q1009
  • 221700Z 10011KT 9999 BKN045 BKN060 13/07 Q1009
  • 221630Z 09007KT 050V140 9999 FEW045TCU BKN060 14/05 Q1009
  • 221600Z 26007KT 9999 FEW050TCU BKN065 16/05 Q1008

TAF AMD TAF LEGR
Valide du 22 à 18h jusqu'au 23 à 15h UTC


221851Z 2218/2315 27008KT 9999 FEW040 TX16/2315Z TN06/2306Z
PROB40
TEMPO 2218/2220 4000 RA SCT035TCU BKN050
PROB40
TEMPO 2303/2308 BKN014
PROB40
TEMPO 2312/2315 4000 SHRA SCT030TCU



MET'MAP, la Météo Aéronautique d'un coup d'oeil ! - Copyright ORBIFLY Décembre 2007 - Disclaimer

ORBIFLY MET'MAP TEAM :

Programmation & Développement : Alexandra Zaïnal
Conception & Développement : Baudouin d'Aumeries
Co-Programmation & Développement : Marc-Olivier Méhu
Soutien technique & logistique : Manuel Goepfert

Contact : metmap@orbifly.com




SOURCES & CREDITS :

   NOAA